Time;durP1;ratioP1;P1;durP2;ratioP2;P2;SDS_P1;SDS_P2;PMS_P1;PMS_P2;Temp;Humidity;BMP_temperature;BMP_pressure;BME280_temperature;BME280_humidity;BME280_pressure;Samples;Min_cycle;Max_cycle;Signal;HPM_P1;HPM_P2
2023/03/30 00:00:17;;;;;;;4.80;4.37;;;;;;;;;;4993338;28;20491;-60
2023/03/30 00:02:43;;;;;;;5.47;4.77;;;;;;;;;;4993103;28;20471;-62
2023/03/30 00:05:10;;;;;;;5.20;4.70;;;;;;;;;;4993481;28;20462;-61
2023/03/30 00:07:40;;;;;;;5.50;4.43;;;;;;;;;;4993532;28;20455;-61
2023/03/30 00:10:08;;;;;;;5.63;5.13;;;;;;;;;;4993521;28;20938;-61
2023/03/30 00:12:36;;;;;;;5.97;4.50;;;;;;;;;;4993533;28;20454;-61
2023/03/30 00:15:03;;;;;;;4.80;4.30;;;;;;;;;;4993520;28;20501;-61
2023/03/30 00:17:32;;;;;;;4.80;4.37;;;;;;;;;;4993400;28;20538;-61
2023/03/30 00:20:00;;;;;;;6.60;4.43;;;;;;;;;;4993284;28;20451;-61
2023/03/30 00:22:28;;;;;;;5.17;4.77;;;;;;;;;;4993213;28;20455;-61
2023/03/30 00:24:55;;;;;;;5.63;4.90;;;;;;;;;;4993423;28;20455;-61
2023/03/30 00:27:22;;;;;;;5.60;5.10;;;;;;;;;;4993360;28;20542;-61
2023/03/30 00:29:50;;;;;;;5.27;4.83;;;;;;;;;;4993376;28;20887;-61
2023/03/30 00:32:17;;;;;;;7.67;5.60;;;;;;;;;;4993364;28;20554;-61
2023/03/30 00:34:44;;;;;;;5.17;4.50;;;;;;;;;;4993092;28;20475;-61
2023/03/30 00:37:11;;;;;;;7.67;6.10;;;;;;;;;;4993055;28;20538;-61
2023/03/30 00:39:38;;;;;;;5.07;4.57;;;;;;;;;;4993042;28;20506;-61
2023/03/30 00:42:05;;;;;;;5.47;4.60;;;;;;;;;;4993184;28;20455;-61
2023/03/30 00:44:50;;;;;;;5.87;5.37;;;;;;;;;;4993168;28;20452;-61
2023/03/30 00:47:19;;;;;;;6.13;4.83;;;;;;;;;;4993177;28;20965;-61
2023/03/30 00:49:46;;;;;;;8.10;5.17;;;;;;;;;;4993264;28;20458;-61
2023/03/30 00:52:18;;;;;;;7.23;5.53;;;;;;;;;;4993229;28;20534;-61
2023/03/30 00:54:45;;;;;;;6.83;5.37;;;;;;;;;;4993018;28;20529;-61
2023/03/30 00:57:12;;;;;;;5.90;5.33;;;;;;;;;;4993064;28;20455;-61
2023/03/30 00:59:39;;;;;;;5.70;5.20;;;;;;;;;;4993017;28;20513;-61
2023/03/30 01:02:07;;;;;;;8.90;6.37;;;;;;;;;;4992868;28;20466;-61
2023/03/30 01:04:36;;;;;;;6.57;6.07;;;;;;;;;;4993141;28;20447;-61
2023/03/30 01:07:04;;;;;;;5.80;5.30;;;;;;;;;;4993036;28;20454;-61
2023/03/30 01:09:31;;;;;;;6.80;6.07;;;;;;;;;;4992999;28;20452;-61
2023/03/30 01:11:58;;;;;;;9.20;6.37;;;;;;;;;;4993342;28;20485;-61
2023/03/30 01:14:25;;;;;;;6.60;5.80;;;;;;;;;;4996348;28;20458;-61
2023/03/30 01:16:55;;;;;;;7.80;6.87;;;;;;;;;;4996304;28;20447;-61
2023/03/30 01:19:32;;;;;;;9.03;6.40;;;;;;;;;;4996573;28;20958;-60
2023/03/30 01:22:15;;;;;;;8.53;6.13;;;;;;;;;;4996339;28;20981;-61
2023/03/30 01:25:01;;;;;;;7.77;6.13;;;;;;;;;;4996224;28;20465;-61
2023/03/30 01:27:44;;;;;;;7.80;6.50;;;;;;;;;;4996210;28;20953;-61
2023/03/30 01:30:20;;;;;;;7.10;6.47;;;;;;;;;;4996230;28;20935;-61
2023/03/30 01:33:05;;;;;;;7.80;6.80;;;;;;;;;;4996013;28;20943;-61
2023/03/30 01:35:39;;;;;;;7.70;6.90;;;;;;;;;;4995520;28;20483;-61
2023/03/30 01:38:15;;;;;;;10.87;7.57;;;;;;;;;;4996087;28;20478;-61
2023/03/30 01:40:47;;;;;;;10.63;6.30;;;;;;;;;;4996187;28;20450;-61
2023/03/30 01:43:16;;;;;;;6.83;6.13;;;;;;;;;;4995843;28;20960;-61
2023/03/30 01:45:45;;;;;;;9.17;6.73;;;;;;;;;;4995888;28;20916;-61
2023/03/30 01:48:14;;;;;;;8.90;7.47;;;;;;;;;;4996184;28;20455;-61
2023/03/30 01:50:41;;;;;;;7.40;6.70;;;;;;;;;;4995978;28;20447;-61
2023/03/30 01:53:12;;;;;;;7.20;6.50;;;;;;;;;;4995862;28;20900;-61
2023/03/30 01:55:42;;;;;;;8.50;7.57;;;;;;;;;;4995746;28;20923;-61
2023/03/30 01:58:12;;;;;;;10.73;7.63;;;;;;;;;;4995686;28;20550;-61
2023/03/30 02:00:42;;;;;;;10.03;7.60;;;;;;;;;;4995601;28;20886;-60
2023/03/30 02:03:12;;;;;;;9.17;7.57;;;;;;;;;;4995692;28;20455;-61
2023/03/30 02:05:39;;;;;;;8.67;7.87;;;;;;;;;;4995668;28;20460;-61
2023/03/30 02:08:10;;;;;;;8.90;8.00;;;;;;;;;;4995524;28;20455;-61
2023/03/30 02:10:38;;;;;;;10.47;8.23;;;;;;;;;;4995550;28;20819;-61
2023/03/30 02:13:05;;;;;;;8.77;7.67;;;;;;;;;;4995283;28;20458;-61
2023/03/30 02:15:35;;;;;;;9.73;8.13;;;;;;;;;;4995387;28;20487;-61
2023/03/30 02:18:03;;;;;;;8.73;7.93;;;;;;;;;;4995396;28;20448;-61
2023/03/30 02:20:30;;;;;;;8.57;7.67;;;;;;;;;;4995323;28;20487;-61
2023/03/30 02:22:57;;;;;;;8.27;7.57;;;;;;;;;;4995166;28;20932;-61
2023/03/30 02:25:25;;;;;;;9.60;8.10;;;;;;;;;;4994257;28;20451;-60
2023/03/30 02:27:52;;;;;;;9.50;7.60;;;;;;;;;;4995277;28;20487;-61
2023/03/30 02:30:19;;;;;;;8.63;7.70;;;;;;;;;;4995139;28;20538;-61
2023/03/30 02:32:48;;;;;;;7.90;7.10;;;;;;;;;;4995035;28;20789;-61
2023/03/30 02:35:21;;;;;;;8.23;7.30;;;;;;;;;;4994829;28;20476;-61
2023/03/30 02:38:08;;;;;;;8.70;7.80;;;;;;;;;;4994832;28;20942;-61
2023/03/30 02:40:37;;;;;;;10.33;7.17;;;;;;;;;;4990145;28;20947;-61
2023/03/30 02:43:15;;;;;;;8.17;7.37;;;;;;;;;;4994781;28;20452;-61
2023/03/30 02:45:48;;;;;;;9.93;7.87;;;;;;;;;;4994733;28;20951;-61
2023/03/30 02:48:23;;;;;;;8.80;7.90;;;;;;;;;;4995261;28;20451;-61
2023/03/30 02:50:55;;;;;;;7.70;7.00;;;;;;;;;;4995149;28;20546;-61
2023/03/30 02:53:25;;;;;;;9.03;7.37;;;;;;;;;;4994807;28;20456;-61
2023/03/30 02:55:59;;;;;;;9.03;7.57;;;;;;;;;;4994654;28;20629;-61
2023/03/30 02:58:30;;;;;;;8.33;7.40;;;;;;;;;;4994649;28;20505;-61
2023/03/30 03:01:01;;;;;;;8.37;7.47;;;;;;;;;;4994560;28;20474;-61
2023/03/30 03:03:33;;;;;;;10.07;8.17;;;;;;;;;;4994819;28;20806;-61
2023/03/30 03:06:01;;;;;;;8.60;7.80;;;;;;;;;;4994594;28;20650;-61
2023/03/30 03:08:29;;;;;;;8.53;7.77;;;;;;;;;;4994410;28;20455;-61
2023/03/30 03:10:56;;;;;;;10.30;8.50;;;;;;;;;;4994429;28;20938;-61
2023/03/30 03:13:23;;;;;;;8.77;7.87;;;;;;;;;;4994129;28;20498;-60
2023/03/30 03:15:54;;;;;;;10.00;7.43;;;;;;;;;;4994399;28;20558;-61
2023/03/30 03:18:21;;;;;;;8.97;7.70;;;;;;;;;;4994360;28;20538;-61
2023/03/30 03:20:49;;;;;;;9.87;8.10;;;;;;;;;;4994035;28;20458;-61
2023/03/30 03:23:16;;;;;;;8.30;7.40;;;;;;;;;;4994246;28;20482;-61
2023/03/30 03:25:43;;;;;;;12.20;8.20;;;;;;;;;;4993930;28;20947;-61
2023/03/30 03:28:10;;;;;;;8.10;7.30;;;;;;;;;;4993991;28;20447;-61
2023/03/30 03:30:37;;;;;;;9.50;8.10;;;;;;;;;;4994011;28;20452;-60
2023/03/30 03:33:04;;;;;;;8.17;7.43;;;;;;;;;;4994073;28;20450;-61
2023/03/30 03:35:31;;;;;;;8.97;8.07;;;;;;;;;;4993757;28;20477;-61
2023/03/30 03:37:59;;;;;;;7.93;6.83;;;;;;;;;;4993605;28;20466;-61
2023/03/30 03:40:26;;;;;;;11.40;9.80;;;;;;;;;;4993654;28;20452;-61
2023/03/30 03:42:53;;;;;;;17.03;8.07;;;;;;;;;;4993586;28;20783;-61
2023/03/30 03:45:20;;;;;;;10.27;7.90;;;;;;;;;;4993896;28;20699;-61
2023/03/30 03:47:47;;;;;;;10.07;8.30;;;;;;;;;;4993753;28;20455;-61
2023/03/30 03:50:14;;;;;;;12.00;8.23;;;;;;;;;;4993611;28;20550;-61
2023/03/30 03:52:41;;;;;;;8.83;8.00;;;;;;;;;;4993561;28;20448;-61
2023/03/30 03:55:09;;;;;;;7.87;7.17;;;;;;;;;;4993567;28;20458;-61
2023/03/30 03:57:37;;;;;;;9.37;8.40;;;;;;;;;;4993573;28;20566;-61
2023/03/30 04:00:06;;;;;;;9.10;8.20;;;;;;;;;;4993597;28;20454;-61
2023/03/30 04:02:41;;;;;;;9.50;7.70;;;;;;;;;;4993441;28;20985;-61
2023/03/30 04:05:08;;;;;;;9.23;8.33;;;;;;;;;;4993431;28;20542;-61
2023/03/30 04:07:35;;;;;;;10.23;8.67;;;;;;;;;;4993253;28;20477;-60
2023/03/30 04:10:02;;;;;;;8.80;8.00;;;;;;;;;;4993529;28;20444;-61
2023/03/30 04:12:31;;;;;;;10.00;8.53;;;;;;;;;;4993591;28;20451;-61
2023/03/30 04:14:58;;;;;;;9.07;8.17;;;;;;;;;;4993465;28;20505;-61
2023/03/30 04:17:25;;;;;;;8.67;7.73;;;;;;;;;;4993440;28;20519;-61
2023/03/30 04:19:53;;;;;;;8.33;7.50;;;;;;;;;;4993421;28;20451;-61
2023/03/30 04:22:23;;;;;;;11.53;8.80;;;;;;;;;;4993198;28;20491;-61
2023/03/30 04:24:50;;;;;;;8.40;7.70;;;;;;;;;;4993479;28;20596;-61
2023/03/30 04:27:17;;;;;;;9.07;8.13;;;;;;;;;;4993341;28;20451;-61
2023/03/30 04:29:45;;;;;;;7.90;7.20;;;;;;;;;;4993200;28;20807;-61
2023/03/30 04:32:12;;;;;;;7.60;6.83;;;;;;;;;;4993202;28;20498;-61
2023/03/30 04:34:41;;;;;;;8.50;7.60;;;;;;;;;;4993076;28;20502;-61
2023/03/30 04:37:08;;;;;;;9.00;6.83;;;;;;;;;;4993213;28;20597;-61
2023/03/30 04:39:35;;;;;;;7.70;6.80;;;;;;;;;;4993223;28;20472;-61
2023/03/30 04:42:02;;;;;;;7.97;6.70;;;;;;;;;;4993104;28;20953;-61
2023/03/30 04:44:30;;;;;;;7.37;6.67;;;;;;;;;;4993015;28;20896;-61
2023/03/30 04:46:58;;;;;;;7.93;6.67;;;;;;;;;;4993468;28;20502;-61
2023/03/30 04:49:25;;;;;;;8.10;7.30;;;;;;;;;;4996766;28;20562;-61
2023/03/30 04:51:53;;;;;;;8.73;6.83;;;;;;;;;;4996967;28;20510;-61
2023/03/30 04:54:20;;;;;;;9.50;7.67;;;;;;;;;;4996917;28;20451;-61
2023/03/30 04:56:47;;;;;;;6.63;6.13;;;;;;;;;;4996572;28;21002;-61
2023/03/30 04:59:14;;;;;;;8.83;6.40;;;;;;;;;;4996770;28;20454;-61
2023/03/30 05:01:41;;;;;;;8.03;7.23;;;;;;;;;;4996591;28;20834;-61
2023/03/30 05:04:09;;;;;;;6.73;6.00;;;;;;;;;;4996907;28;20457;-62
2023/03/30 05:06:36;;;;;;;6.80;6.10;;;;;;;;;;4996924;28;20452;-61
2023/03/30 05:09:03;;;;;;;8.03;6.27;;;;;;;;;;4996656;28;20483;-62
2023/03/30 05:11:30;;;;;;;6.17;5.47;;;;;;;;;;4996439;28;20456;-62
2023/03/30 05:13:57;;;;;;;6.60;6.00;;;;;;;;;;4996449;28;20939;-61
2023/03/30 05:16:24;;;;;;;6.70;6.10;;;;;;;;;;4996201;28;20554;-61
2023/03/30 05:18:51;;;;;;;6.90;5.63;;;;;;;;;;4996503;28;20554;-59
2023/03/30 05:21:19;;;;;;;6.03;5.43;;;;;;;;;;4996647;28;20461;-60
2023/03/30 05:23:46;;;;;;;8.20;7.40;;;;;;;;;;4996170;28;20538;-60
2023/03/30 05:26:13;;;;;;;6.50;5.47;;;;;;;;;;4996240;28;20815;-60
2023/03/30 05:28:41;;;;;;;8.50;6.20;;;;;;;;;;4995992;28;20452;-60
2023/03/30 05:31:09;;;;;;;6.57;5.90;;;;;;;;;;4996136;28;20506;-61
2023/03/30 05:33:36;;;;;;;6.40;5.90;;;;;;;;;;4996132;28;20462;-60
2023/03/30 05:36:03;;;;;;;6.40;5.77;;;;;;;;;;4995804;28;20476;-60
2023/03/30 05:38:31;;;;;;;6.87;5.40;;;;;;;;;;4995932;28;20566;-60
2023/03/30 05:40:58;;;;;;;6.77;6.00;;;;;;;;;;4995862;28;20464;-60
2023/03/30 05:43:25;;;;;;;6.40;5.80;;;;;;;;;;4995667;28;20458;-61
2023/03/30 05:45:52;;;;;;;6.30;5.70;;;;;;;;;;4995916;28;20452;-60
2023/03/30 05:48:19;;;;;;;5.60;5.10;;;;;;;;;;4995858;28;20538;-60
2023/03/30 05:50:47;;;;;;;7.77;5.77;;;;;;;;;;4995635;28;20491;-61
2023/03/30 05:53:15;;;;;;;6.10;4.43;;;;;;;;;;4995609;28;20495;-61
2023/03/30 05:55:45;;;;;;;5.87;5.27;;;;;;;;;;4995628;28;20522;-61
2023/03/30 05:58:12;;;;;;;5.13;4.73;;;;;;;;;;4994797;28;20498;-61
2023/03/30 06:00:40;;;;;;;7.07;6.23;;;;;;;;;;4995060;28;20819;-61
2023/03/30 06:03:07;;;;;;;6.70;4.87;;;;;;;;;;4995548;28;20497;-61
2023/03/30 06:05:35;;;;;;;5.77;5.10;;;;;;;;;;4995347;28;20464;-61
2023/03/30 06:08:03;;;;;;;5.50;5.10;;;;;;;;;;4995375;28;20542;-61
2023/03/30 06:10:30;;;;;;;5.73;5.17;;;;;;;;;;4995491;28;20455;-61
2023/03/30 06:12:58;;;;;;;7.17;5.93;;;;;;;;;;4995510;28;20493;-61
2023/03/30 06:15:26;;;;;;;5.70;4.77;;;;;;;;;;4995544;28;20451;-61
2023/03/30 06:17:52;;;;;;;8.93;4.90;;;;;;;;;;4995014;28;20484;-61
2023/03/30 06:20:20;;;;;;;4.90;4.50;;;;;;;;;;4995327;28;20455;-61
2023/03/30 06:22:47;;;;;;;6.00;5.40;;;;;;;;;;4995108;28;20930;-61
2023/03/30 06:25:14;;;;;;;6.93;5.00;;;;;;;;;;4994944;28;20969;-61
2023/03/30 06:27:41;;;;;;;5.83;4.20;;;;;;;;;;4994993;28;20505;-61
2023/03/30 06:30:10;;;;;;;5.83;5.30;;;;;;;;;;4994604;28;20454;-61
2023/03/30 06:32:37;;;;;;;5.33;4.83;;;;;;;;;;4995270;28;20538;-62
2023/03/30 06:35:04;;;;;;;5.73;5.20;;;;;;;;;;4995374;28;20809;-61
2023/03/30 06:37:31;;;;;;;4.70;4.30;;;;;;;;;;4994804;28;20582;-61
2023/03/30 06:39:58;;;;;;;5.03;4.43;;;;;;;;;;4994718;28;20483;-61
2023/03/30 06:42:27;;;;;;;4.07;3.77;;;;;;;;;;4994841;28;20462;-61
2023/03/30 06:44:54;;;;;;;6.77;4.73;;;;;;;;;;4994798;28;20456;-61
2023/03/30 06:47:22;;;;;;;4.73;4.30;;;;;;;;;;4994716;28;20505;-61
2023/03/30 06:49:49;;;;;;;5.50;4.20;;;;;;;;;;4994691;28;20451;-61
2023/03/30 06:52:17;;;;;;;7.60;4.50;;;;;;;;;;4994566;28;20507;-61
2023/03/30 06:54:43;;;;;;;5.20;4.70;;;;;;;;;;4994913;28;20447;-61
2023/03/30 06:57:10;;;;;;;6.30;4.70;;;;;;;;;;4994630;28;20482;-61
2023/03/30 06:59:37;;;;;;;6.87;4.80;;;;;;;;;;4994516;28;20455;-61
2023/03/30 07:02:05;;;;;;;5.27;4.50;;;;;;;;;;4994167;28;20542;-61
2023/03/30 07:04:33;;;;;;;5.60;4.10;;;;;;;;;;4994237;28;20542;-59
2023/03/30 07:07:00;;;;;;;5.00;4.60;;;;;;;;;;4994192;28;20950;-61
2023/03/30 07:09:27;;;;;;;4.70;4.10;;;;;;;;;;4994217;28;20455;-60
2023/03/30 07:11:54;;;;;;;4.47;3.77;;;;;;;;;;4993909;28;20458;-62
2023/03/30 07:14:21;;;;;;;5.50;5.00;;;;;;;;;;4994257;28;20541;-61
2023/03/30 07:16:48;;;;;;;4.27;3.60;;;;;;;;;;4994020;28;20883;-61
2023/03/30 07:19:16;;;;;;;5.90;4.47;;;;;;;;;;4994085;28;20577;-62
2023/03/30 07:21:44;;;;;;;4.60;4.10;;;;;;;;;;4994120;28;20808;-59
2023/03/30 07:24:11;;;;;;;5.03;4.63;;;;;;;;;;4994134;28;20510;-60
2023/03/30 07:26:38;;;;;;;3.83;3.50;;;;;;;;;;4994018;28;20838;-60
2023/03/30 07:29:05;;;;;;;5.43;4.20;;;;;;;;;;4993895;28;20458;-59
2023/03/30 07:31:32;;;;;;;4.33;3.70;;;;;;;;;;4993813;28;20451;-60
2023/03/30 07:33:59;;;;;;;5.17;4.13;;;;;;;;;;4993540;28;20460;-60
2023/03/30 07:36:26;;;;;;;4.57;4.13;;;;;;;;;;4993661;28;20500;-60
2023/03/30 07:38:54;;;;;;;7.13;3.50;;;;;;;;;;4993855;28;20479;-63
2023/03/30 07:41:21;;;;;;;8.10;3.87;;;;;;;;;;4993356;28;20458;-69
2023/03/30 07:43:48;;;;;;;5.20;3.92;;;;;;;;;;4992711;28;20469;-62
2023/03/30 07:46:15;;;;;;;5.90;3.80;;;;;;;;;;4993624;28;20232;-61
2023/03/30 07:48:42;;;;;;;7.07;4.53;;;;;;;;;;4993814;28;20479;-62
2023/03/30 07:51:10;;;;;;;4.00;3.60;;;;;;;;;;4993713;28;20483;-62
2023/03/30 07:53:37;;;;;;;7.43;3.40;;;;;;;;;;4993579;28;20447;-64
2023/03/30 07:56:06;;;;;;;4.50;4.10;;;;;;;;;;4993641;28;20969;-62
2023/03/30 07:58:33;;;;;;;3.47;3.07;;;;;;;;;;4993339;28;20994;-61
2023/03/30 08:01:01;;;;;;;5.03;3.93;;;;;;;;;;4993240;28;20506;-62
2023/03/30 08:03:30;;;;;;;4.27;3.87;;;;;;;;;;4993102;28;20577;-61
2023/03/30 08:05:59;;;;;;;5.10;3.67;;;;;;;;;;4993506;28;20455;-63
2023/03/30 08:08:26;;;;;;;5.07;3.10;;;;;;;;;;4993391;28;20456;-62
2023/03/30 08:10:53;;;;;;;4.67;3.27;;;;;;;;;;4993245;28;20451;-62
2023/03/30 08:13:22;;;;;;;4.33;4.03;;;;;;;;;;4993180;28;20546;-62
2023/03/30 08:15:49;;;;;;;5.53;4.53;;;;;;;;;;4993357;28;20480;-62
2023/03/30 08:18:16;;;;;;;3.27;2.97;;;;;;;;;;4993407;28;20492;-61
2023/03/30 08:20:45;;;;;;;5.00;3.03;;;;;;;;;;4993316;28;20968;-61
2023/03/30 08:23:12;;;;;;;3.63;3.33;;;;;;;;;;4995803;28;20461;-61
2023/03/30 08:25:39;;;;;;;4.50;2.83;;;;;;;;;;4997337;28;20492;-61
2023/03/30 08:28:07;;;;;;;6.03;3.10;;;;;;;;;;4997021;28;20454;-61
2023/03/30 08:30:35;;;;;;;6.27;3.50;;;;;;;;;;4997142;28;20553;-61
2023/03/30 08:33:02;;;;;;;4.63;3.43;;;;;;;;;;4996759;28;20452;-61
2023/03/30 08:35:29;;;;;;;5.70;3.80;;;;;;;;;;4997128;28;20856;-60
2023/03/30 08:37:56;;;;;;;8.93;3.40;;;;;;;;;;4996732;28;20582;-61
2023/03/30 08:40:23;;;;;;;3.23;2.93;;;;;;;;;;4996972;28;21063;-64
2023/03/30 08:42:56;;;;;;;4.37;2.70;;;;;;;;;;4996927;28;20539;-63
2023/03/30 08:45:23;;;;;;;3.87;2.77;;;;;;;;;;4996967;28;20887;-64
2023/03/30 08:47:52;;;;;;;7.53;3.10;;;;;;;;;;4996898;28;20457;-64
2023/03/30 08:50:23;;;;;;;5.27;3.63;;;;;;;;;;4996788;28;20452;-63
2023/03/30 08:52:50;;;;;;;3.60;2.50;;;;;;;;;;4996691;28;20947;-63
2023/03/30 08:55:23;;;;;;;3.70;2.60;;;;;;;;;;4997100;28;20549;-60
2023/03/30 08:57:51;;;;;;;5.23;3.23;;;;;;;;;;4996630;28;20485;-62
2023/03/30 09:00:26;;;;;;;4.33;2.67;;;;;;;;;;4996593;28;20458;-62
2023/03/30 09:02:59;;;;;;;3.00;2.77;;;;;;;;;;4996563;28;20456;-61
2023/03/30 09:05:29;;;;;;;4.20;2.80;;;;;;;;;;4996547;28;20448;-58
2023/03/30 09:08:00;;;;;;;4.50;3.17;;;;;;;;;;4996720;28;20636;-61
2023/03/30 09:10:29;;;;;;;3.93;2.33;;;;;;;;;;4996464;28;20453;-59
2023/03/30 09:12:58;;;;;;;9.10;3.10;;;;;;;;;;4996223;28;20974;-60
2023/03/30 09:15:28;;;;;;;4.53;2.57;;;;;;;;;;4996013;28;20449;-59
2023/03/30 09:18:00;;;;;;;2.90;2.43;;;;;;;;;;4996166;28;20473;-59
2023/03/30 09:20:28;;;;;;;5.50;2.93;;;;;;;;;;4996413;28;20454;-62
2023/03/30 09:22:55;;;;;;;3.30;3.00;;;;;;;;;;4996298;28;20454;-61
2023/03/30 09:25:26;;;;;;;5.13;2.57;;;;;;;;;;4996214;28;20511;-60
2023/03/30 09:27:57;;;;;;;5.87;2.43;;;;;;;;;;4996227;28;20555;-60
2023/03/30 09:30:28;;;;;;;7.73;2.77;;;;;;;;;;4996131;28;20470;-65
2023/03/30 09:33:00;;;;;;;3.93;2.43;;;;;;;;;;4995820;28;20444;-60
2023/03/30 09:35:33;;;;;;;4.13;2.53;;;;;;;;;;4996241;28;20975;-60
2023/03/30 09:38:00;;;;;;;8.83;4.73;;;;;;;;;;4995900;28;20568;-60
2023/03/30 09:40:34;;;;;;;5.73;3.30;;;;;;;;;;4996224;28;20537;-61
2023/03/30 09:43:05;;;;;;;5.97;3.10;;;;;;;;;;4995861;28;20543;-63
2023/03/30 09:45:34;;;;;;;5.13;2.13;;;;;;;;;;4996048;28;20454;-62
2023/03/30 09:48:07;;;;;;;8.20;2.60;;;;;;;;;;4995710;28;20942;-62
2023/03/30 09:50:38;;;;;;;3.90;2.70;;;;;;;;;;4995966;28;20447;-62
2023/03/30 09:53:08;;;;;;;3.33;2.47;;;;;;;;;;4996239;28;20480;-62
2023/03/30 09:55:37;;;;;;;2.43;2.23;;;;;;;;;;4995565;28;20804;-62
2023/03/30 09:58:12;;;;;;;3.73;2.73;;;;;;;;;;4995653;28;20839;-61
2023/03/30 10:00:39;;;;;;;5.53;2.57;;;;;;;;;;4995532;28;20812;-61
2023/03/30 10:03:08;;;;;;;4.17;3.00;;;;;;;;;;4995548;28;20457;-63
2023/03/30 10:05:36;;;;;;;5.17;2.43;;;;;;;;;;4995476;28;20802;-63
2023/03/30 10:08:04;;;;;;;3.60;2.80;;;;;;;;;;4995279;28;20484;-62
2023/03/30 10:10:33;;;;;;;3.47;2.40;;;;;;;;;;4995460;28;20513;-61
2023/03/30 10:13:03;;;;;;;4.10;2.50;;;;;;;;;;4995426;28;20853;-58
2023/03/30 10:15:30;;;;;;;4.70;2.10;;;;;;;;;;4995402;28;20450;-64
2023/03/30 10:18:01;;;;;;;5.90;2.03;;;;;;;;;;4995182;28;20562;-60
2023/03/30 10:20:33;;;;;;;4.43;2.73;;;;;;;;;;4995131;28;20974;-61
2023/03/30 10:23:02;;;;;;;6.13;2.40;;;;;;;;;;4994979;28;20522;-61
2023/03/30 10:25:30;;;;;;;7.60;3.00;;;;;;;;;;4994796;28;20475;-61
2023/03/30 10:28:01;;;;;;;4.50;2.97;;;;;;;;;;4995085;28;20210;-61
2023/03/30 10:30:28;;;;;;;10.83;3.20;;;;;;;;;;4995122;28;20459;-61
2023/03/30 10:32:57;;;;;;;7.00;2.30;;;;;;;;;;4994707;28;20464;-61
2023/03/30 10:35:25;;;;;;;8.60;2.40;;;;;;;;;;4995130;28;20842;-61
2023/03/30 10:37:55;;;;;;;4.20;2.80;;;;;;;;;;4994678;28;20476;-62
2023/03/30 10:40:25;;;;;;;4.20;2.13;;;;;;;;;;4994806;28;20453;-59
2023/03/30 10:42:55;;;;;;;4.27;2.60;;;;;;;;;;4995258;28;20504;-59
2023/03/30 10:45:27;;;;;;;3.80;2.27;;;;;;;;;;4994246;28;20496;-59
2023/03/30 10:48:08;;;;;;;6.70;2.90;;;;;;;;;;4994653;28;20516;-63
2023/03/30 10:50:40;;;;;;;3.60;2.67;;;;;;;;;;4994759;28;20445;-63
2023/03/30 10:53:15;;;;;;;4.83;2.40;;;;;;;;;;4994550;28;20476;-61
2023/03/30 10:55:44;;;;;;;3.60;2.90;;;;;;;;;;4995239;28;20466;-61
2023/03/30 10:58:17;;;;;;;4.90;2.90;;;;;;;;;;4994322;28;20478;-59
2023/03/30 11:00:50;;;;;;;2.50;2.23;;;;;;;;;;4994497;28;20579;-60
2023/03/30 11:03:19;;;;;;;6.40;2.97;;;;;;;;;;4994380;28;20463;-61
2023/03/30 11:05:48;;;;;;;6.20;2.73;;;;;;;;;;4994423;28;20452;-60
2023/03/30 11:08:18;;;;;;;7.53;2.80;;;;;;;;;;4994318;28;20896;-60
2023/03/30 11:10:47;;;;;;;9.03;2.83;;;;;;;;;;4994482;28;20535;-59
2023/03/30 11:13:17;;;;;;;8.03;3.30;;;;;;;;;;4994380;28;20464;-62
2023/03/30 11:15:46;;;;;;;5.73;2.50;;;;;;;;;;4994392;28;20510;-60
2023/03/30 11:18:15;;;;;;;2.70;2.50;;;;;;;;;;4994095;28;20480;-61
2023/03/30 11:20:44;;;;;;;3.80;2.13;;;;;;;;;;4994264;28;20457;-60
2023/03/30 11:23:15;;;;;;;3.60;2.60;;;;;;;;;;4993906;28;20983;-60
2023/03/30 11:25:47;;;;;;;4.30;2.37;;;;;;;;;;4994093;28;20945;-64
2023/03/30 11:28:19;;;;;;;5.57;3.03;;;;;;;;;;4993876;28;20456;-60
2023/03/30 11:30:46;;;;;;;7.93;2.83;;;;;;;;;;4994075;28;20458;-60
2023/03/30 11:33:18;;;;;;;5.30;2.37;;;;;;;;;;4993852;28;20463;-61
2023/03/30 11:35:46;;;;;;;5.90;2.17;;;;;;;;;;4993887;28;20868;-60
2023/03/30 11:38:15;;;;;;;3.40;2.37;;;;;;;;;;4998351;28;20480;-60
2023/03/30 11:40:45;;;;;;;3.63;3.00;;;;;;;;;;5013938;28;20464;-60
2023/03/30 11:43:12;;;;;;;6.13;2.97;;;;;;;;;;5013292;28;20515;-60
2023/03/30 11:45:47;;;;;;;3.43;2.90;;;;;;;;;;5013466;28;20539;-61
2023/03/30 11:48:20;;;;;;;11.07;3.90;;;;;;;;;;5011306;28;20947;-61
2023/03/30 11:50:54;;;;;;;4.43;3.03;;;;;;;;;;5013418;28;20855;-62
2023/03/30 11:53:24;;;;;;;7.47;3.70;;;;;;;;;;5013205;28;20511;-62
2023/03/30 11:55:56;;;;;;;6.00;2.77;;;;;;;;;;5013187;28;20492;-61
2023/03/30 11:58:27;;;;;;;7.83;4.17;;;;;;;;;;5012868;28;20481;-59
2023/03/30 12:01:00;;;;;;;3.60;2.60;;;;;;;;;;5013132;28;20814;-62
2023/03/30 12:03:35;;;;;;;5.67;2.80;;;;;;;;;;5013126;28;20457;-60
2023/03/30 12:06:13;;;;;;;5.07;2.60;;;;;;;;;;5013146;28;20550;-60
2023/03/30 12:08:49;;;;;;;5.50;2.67;;;;;;;;;;5013015;28;20912;-61
2023/03/30 12:11:21;;;;;;;4.10;2.10;;;;;;;;;;5012929;28;20455;-61
2023/03/30 12:13:48;;;;;;;2.73;2.30;;;;;;;;;;5013011;28;20457;-59
2023/03/30 12:16:20;;;;;;;8.00;2.50;;;;;;;;;;5012922;28;20453;-60
2023/03/30 12:18:52;;;;;;;13.23;3.00;;;;;;;;;;5012979;28;20477;-62
2023/03/30 12:21:25;;;;;;;7.07;3.43;;;;;;;;;;5012857;28;20463;-61
2023/03/30 12:23:54;;;;;;;3.83;2.40;;;;;;;;;;5012145;28;20462;-63
2023/03/30 12:26:26;;;;;;;3.67;2.33;;;;;;;;;;5012844;28;20860;-63
2023/03/30 12:28:58;;;;;;;5.77;3.30;;;;;;;;;;5011654;28;20470;-64
2023/03/30 12:31:40;;;;;;;6.60;2.83;;;;;;;;;;5012881;28;20450;-62
2023/03/30 12:34:07;;;;;;;5.43;2.60;;;;;;;;;;5011702;28;20950;-62
2023/03/30 12:36:37;;;;;;;3.20;2.57;;;;;;;;;;5012586;28;20466;-61
2023/03/30 12:39:05;;;;;;;7.93;2.90;;;;;;;;;;5012436;28;20902;-61
2023/03/30 12:41:41;;;;;;;5.67;2.60;;;;;;;;;;5012870;28;20461;-61
2023/03/30 12:44:27;;;;;;;7.37;3.00;;;;;;;;;;5012544;28;20946;-61
2023/03/30 12:47:01;;;;;;;7.43;3.10;;;;;;;;;;5012539;28;20997;-61
2023/03/30 12:49:35;;;;;;;4.00;2.77;;;;;;;;;;5012630;28;20885;-63
2023/03/30 12:52:09;;;;;;;6.10;3.30;;;;;;;;;;5012516;28;20487;-63
2023/03/30 12:54:54;;;;;;;4.93;2.70;;;;;;;;;;5012357;28;20533;-62
2023/03/30 12:57:28;;;;;;;6.53;2.87;;;;;;;;;;5012748;28;20837;-62
2023/03/30 13:00:22;;;;;;;3.93;2.43;;;;;;;;;;5012485;28;20488;-62
2023/03/30 13:02:57;;;;;;;6.20;2.93;;;;;;;;;;4977730;28;20469;-62
2023/03/30 13:05:25;;;;;;;4.37;3.17;;;;;;;;;;5012302;28;20453;-62
2023/03/30 13:07:54;;;;;;;9.57;3.00;;;;;;;;;;5012244;28;20857;-62
2023/03/30 13:10:35;;;;;;;3.17;2.60;;;;;;;;;;5015933;28;20452;-62
2023/03/30 13:13:04;;;;;;;4.80;3.00;;;;;;;;;;5016139;28;20453;-62
2023/03/30 13:15:40;;;;;;;2.13;1.77;;;;;;;;;;5015833;28;20780;-62
2023/03/30 13:18:22;;;;;;;6.30;2.43;;;;;;;;;;5016207;28;20533;-61
2023/03/30 13:21:04;;;;;;;8.20;3.47;;;;;;;;;;5015916;28;20556;-62
2023/03/30 13:23:32;;;;;;;4.73;2.90;;;;;;;;;;5013637;28;20453;-62
2023/03/30 13:26:04;;;;;;;5.30;2.97;;;;;;;;;;5015826;28;20884;-62
2023/03/30 13:28:45;;;;;;;7.73;2.50;;;;;;;;;;5015920;28;20453;-62
2023/03/30 13:31:21;;;;;;;6.77;2.90;;;;;;;;;;5015787;28;20453;-62
2023/03/30 13:33:50;;;;;;;4.17;2.73;;;;;;;;;;5015701;28;20450;-62
2023/03/30 13:36:18;;;;;;;7.63;2.83;;;;;;;;;;5015581;28;20628;-62
2023/03/30 13:39:00;;;;;;;5.33;2.53;;;;;;;;;;5015581;28;20480;-62
2023/03/30 13:41:34;;;;;;;3.80;2.93;;;;;;;;;;5015586;28;20452;-62
2023/03/30 13:44:06;;;;;;;3.00;2.50;;;;;;;;;;5015454;28;20446;-62
2023/03/30 13:46:36;;;;;;;4.50;2.33;;;;;;;;;;5015491;28;20555;-61
2023/03/30 13:49:10;;;;;;;6.10;2.80;;;;;;;;;;5015233;28;20552;-62
2023/03/30 13:51:40;;;;;;;3.70;2.50;;;;;;;;;;5015519;28;20802;-62
2023/03/30 13:54:12;;;;;;;7.63;4.53;;;;;;;;;;5015301;28;20457;-61
2023/03/30 13:56:41;;;;;;;7.27;2.80;;;;;;;;;;5015414;28;20461;-62
2023/03/30 13:59:12;;;;;;;8.47;3.10;;;;;;;;;;5015131;28;20693;-61
2023/03/30 14:01:40;;;;;;;5.00;2.83;;;;;;;;;;5015133;28;20458;-61
2023/03/30 14:04:10;;;;;;;5.83;2.70;;;;;;;;;;5015274;28;20543;-61
2023/03/30 14:06:42;;;;;;;8.17;2.97;;;;;;;;;;5015041;28;20465;-60
2023/03/30 14:09:11;;;;;;;7.57;2.63;;;;;;;;;;5014933;28;20960;-61
2023/03/30 14:11:39;;;;;;;5.73;2.87;;;;;;;;;;5014938;28;20500;-61
2023/03/30 14:14:06;;;;;;;2.73;2.53;;;;;;;;;;5014540;28;20503;-61
2023/03/30 14:16:35;;;;;;;4.00;2.67;;;;;;;;;;5015037;28;20457;-61
2023/03/30 14:19:11;;;;;;;5.37;1.90;;;;;;;;;;5014377;28;20566;-62
2023/03/30 14:21:42;;;;;;;6.07;2.10;;;;;;;;;;5014308;28;20457;-62
2023/03/30 14:24:10;;;;;;;4.13;2.10;;;;;;;;;;5014726;28;20456;-61
2023/03/30 14:26:39;;;;;;;3.33;1.63;;;;;;;;;;5014661;28;20552;-61
2023/03/30 14:29:08;;;;;;;3.60;1.70;;;;;;;;;;5014883;28;20442;-61
2023/03/30 14:31:39;;;;;;;2.40;1.63;;;;;;;;;;5014925;28;20958;-61
2023/03/30 14:34:21;;;;;;;2.63;1.73;;;;;;;;;;5014728;28;20457;-61
2023/03/30 14:36:48;;;;;;;7.17;1.30;;;;;;;;;;5014465;28;20447;-61
2023/03/30 14:39:16;;;;;;;5.03;1.40;;;;;;;;;;5014400;28;20565;-61
2023/03/30 14:41:43;;;;;;;3.07;1.87;;;;;;;;;;5014574;28;20546;-61
2023/03/30 14:44:13;;;;;;;2.27;1.90;;;;;;;;;;5014441;28;20934;-61
2023/03/30 14:46:42;;;;;;;2.20;2.00;;;;;;;;;;5014551;28;20880;-61
2023/03/30 14:49:14;;;;;;;2.10;1.60;;;;;;;;;;5014370;28;20486;-61
2023/03/30 14:51:42;;;;;;;2.97;1.63;;;;;;;;;;5014612;28;20505;-62
2023/03/30 14:54:13;;;;;;;2.23;1.80;;;;;;;;;;5014409;28;20545;-62
2023/03/30 14:56:40;;;;;;;2.13;2.00;;;;;;;;;;5014313;28;20447;-62